Flagstaff, AZ

9:33 AM MST on September 03, 2015 (GMT -0700)
University Highlands | | Change Station
CLOSE
Current Station
Personal Weather Station
Location: Flagstaff, AZ
Elevation: 7067 ft
Nearby Weather Stations

Elev 7067 ft 35.17 °N, 111.68 °W | Updated 11 seconds ago

Partly Cloudy
Partly Cloudy
69.4 °F
Feels Like 69.4 °F
N
0.0
Wind Variable Wind from SW
Gusts 0.0 mph

Today
High -- | Low -- °F
--% Chance of Precip.
Yesterday
High -- | Low -- °F
Precip. -- in
6:00 AM 6:50 PM
Waning Gibbous, 69% visible
Pressure 29.99 in
Visibility 10.0 miles
Clouds Few 4300 ft
Dew Point 42 °F
Humidity 37%
Rainfall 0.00 in
Snow Depth Not available.
UV 1.0 out of 12
Pollen 4.10 out of 12
Air Quality Not available.
Flu Activity Not available.
METAR KFLG 031557Z 21012KT 10SM FEW043 19/05 A3027 RMK AO2 SLP155 T01890050
Pressure 29.99 in
Visibility 10.0 miles
Clouds Few 4300 ft
Dew Point 42 °F
Humidity 37%
Rainfall 0.00 in
Snow Depth Not available.
UV 1.0 out of 12
Pollen 4.10 out of 12
Air Quality Not available.
Flu Activity Not available.
METAR KFLG 031557Z 21012KT 10SM FEW043 19/05 A3027 RMK AO2 SLP155 T01890050

10-Day Weather Forecast

×

Almanac

Astronomy

Sep. 03, 2015 Rise Set
Actual Time
Civil Twilight
Nautical Twilight
Astronomical Twilight
Moon
Length of Visible Light
Length of Day
Tomorrow will be .
, % of the Moon is Illuminated

Today's Extremes

State Highs State Lows

Community

WunderPhotos

Upload Photos

1,851,988 photos uploaded!

WunderBlogs® & News

Nearby

Air Quality

  Air Quality AQ Index Pollutant
Not available.

Snow Depth

Station Depth Elevation

Earthquake Activity

City Distance Mag. Time & Date
Minimum magnitude displayed is 2.5.

Coastal Water Temperatures

Place Temperature

Stations

Nearby Weather Stations

Station Location Temp. Windchill Dew Point Humidity Wind Precip. Elev Updated Type